Time;durP1;ratioP1;P1;durP2;ratioP2;P2;SDS_P1;SDS_P2;PMS_P1;PMS_P2;Temp;Humidity;BMP_temperature;BMP_pressure;BME280_temperature;BME280_humidity;BME280_pressure;Samples;Min_cycle;Max_cycle;Signal;HPM_P1;HPM_P2
2022/03/13 00:01:40;;;;;;;;;;;0.40;59.50;;;;;;5011124;28;19956;-79
2022/03/13 00:04:06;;;;;;;;;;;0.40;59.10;;;;;;5030973;28;19925;-76
2022/03/13 00:06:36;;;;;;;;;;;0.40;58.80;;;;;;5033317;28;19932;-78
2022/03/13 00:09:04;;;;;;;;;;;0.50;58.00;;;;;;5019945;28;20291;-79
2022/03/13 00:11:30;;;;;;;;;;;0.50;57.50;;;;;;5027438;28;20004;-77
2022/03/13 00:13:57;;;;;;;;;;;0.50;58.40;;;;;;5005091;28;19963;-77
2022/03/13 00:16:23;;;;;;;;;;;0.40;57.90;;;;;;5028891;28;19984;-79
2022/03/13 00:18:49;;;;;;;;;;;0.40;58.50;;;;;;5027993;28;19913;-78
2022/03/13 00:21:15;;;;;;;;;;;0.40;58.30;;;;;;5030255;28;20417;-76
2022/03/13 00:23:42;;;;;;;;;;;0.30;58.50;;;;;;5029135;28;20314;-80
2022/03/13 00:26:08;;;;;;;;;;;0.20;58.80;;;;;;5027280;28;19920;-79
2022/03/13 00:28:34;;;;;;;;;;;0.10;58.30;;;;;;5020076;28;19917;-80
2022/03/13 00:31:03;;;;;;;;;;;0.10;58.00;;;;;;5029189;28;19976;-77
2022/03/13 00:33:28;;;;;;;;;;;0.00;58.40;;;;;;5027837;28;19917;-80
2022/03/13 00:35:54;;;;;;;;;;;-0.10;58.70;;;;;;4991893;28;19980;-77
2022/03/13 00:38:19;;;;;;;;;;;-0.10;59.70;;;;;;5026685;28;19928;-79
2022/03/13 00:40:51;;;;;;;;;;;0.00;59.00;;;;;;5026215;28;20268;-77
2022/03/13 00:43:18;;;;;;;;;;;-0.10;59.90;;;;;;5026177;28;19920;-78
2022/03/13 00:45:44;;;;;;;;;;;-0.10;59.30;;;;;;5018739;28;19921;-80
2022/03/13 00:48:09;;;;;;;;;;;-0.20;59.40;;;;;;5030009;28;19968;-77
2022/03/13 00:50:35;;;;;;;;;;;-0.20;59.40;;;;;;5031147;28;19968;-78
2022/03/13 00:53:01;;;;;;;;;;;-0.30;60.30;;;;;;5026083;28;19971;-78
2022/03/13 00:55:27;;;;;;;;;;;-0.20;60.10;;;;;;5035585;28;19916;-80
2022/03/13 00:57:52;;;;;;;;;;;-0.20;59.50;;;;;;5041984;28;19923;-80
2022/03/13 01:00:18;;;;;;;;;;;-0.30;60.70;;;;;;5032935;28;19921;-78
2022/03/13 01:02:44;;;;;;;;;;;-0.30;60.40;;;;;;5023616;28;20299;-77
2022/03/13 01:05:10;;;;;;;;;;;-0.30;59.60;;;;;;5013645;28;19941;-79
2022/03/13 01:07:36;;;;;;;;;;;-0.30;59.50;;;;;;5020788;28;19955;-80
2022/03/13 01:10:02;;;;;;;;;;;-0.30;59.20;;;;;;5028779;28;19957;-77
2022/03/13 01:12:28;;;;;;;;;;;-0.20;60.30;;;;;;5040902;28;19917;-76
2022/03/13 01:14:53;;;;;;;;;;;-0.30;59.60;;;;;;5022062;28;19925;-78
2022/03/13 01:17:20;;;;;;;;;;;-0.40;60.00;;;;;;5032203;28;20254;-78
2022/03/13 01:19:46;;;;;;;;;;;-0.40;61.10;;;;;;5029441;28;20067;-80
2022/03/13 01:22:12;;;;;;;;;;;-0.50;61.50;;;;;;5032706;28;20224;-80
2022/03/13 01:24:44;;;;;;;;;;;-0.50;62.40;;;;;;5028504;28;19914;-78
2022/03/13 01:27:11;;;;;;;;;;;-0.50;62.30;;;;;;5024539;28;20292;-78
2022/03/13 01:29:37;;;;;;;;;;;-0.60;61.80;;;;;;5014073;28;19959;-80
2022/03/13 01:32:03;;;;;;;;;;;-0.60;60.70;;;;;;5027357;28;19956;-79
2022/03/13 01:34:50;;;;;;;;;;;-0.60;61.30;;;;;;5027495;28;19917;-79
2022/03/13 01:37:21;;;;;;;;;;;-0.60;61.50;;;;;;5020605;28;20339;-79
2022/03/13 01:39:48;;;;;;;;;;;-0.70;60.70;;;;;;5032171;28;19944;-78
2022/03/13 01:42:14;;;;;;;;;;;-0.70;62.90;;;;;;5034415;28;20400;-79
2022/03/13 01:44:40;;;;;;;;;;;-0.70;62.40;;;;;;5029251;28;19921;-79
2022/03/13 01:47:06;;;;;;;;;;;-0.70;63.70;;;;;;5028026;28;19983;-78
2022/03/13 01:49:32;;;;;;;;;;;-0.80;63.00;;;;;;5029895;28;19966;-78
2022/03/13 01:51:58;;;;;;;;;;;-0.80;63.10;;;;;;5033796;28;19917;-79
2022/03/13 01:54:23;;;;;;;;;;;-0.80;62.80;;;;;;5035777;28;19920;-78
2022/03/13 01:56:49;;;;;;;;;;;-0.80;62.60;;;;;;5035135;28;19913;-78
2022/03/13 01:59:15;;;;;;;;;;;-0.90;62.60;;;;;;5029223;28;19924;-80
2022/03/13 02:01:42;;;;;;;;;;;-0.90;62.40;;;;;;5032444;28;19917;-77
2022/03/13 02:04:10;;;;;;;;;;;-0.90;63.80;;;;;;5033258;28;20012;-79
2022/03/13 02:06:36;;;;;;;;;;;-0.80;61.80;;;;;;5037543;28;19967;-78
2022/03/13 02:09:02;;;;;;;;;;;-0.70;61.10;;;;;;5030356;28;19917;-78
2022/03/13 02:11:38;;;;;;;;;;;-0.60;60.90;;;;;;5025731;28;19940;-78
2022/03/13 02:14:05;;;;;;;;;;;-0.60;60.40;;;;;;5026791;28;19917;-79
2022/03/13 02:16:30;;;;;;;;;;;-0.70;59.70;;;;;;5025399;28;19956;-78
2022/03/13 02:18:57;;;;;;;;;;;-0.70;60.50;;;;;;5028299;28;20314;-78
2022/03/13 02:21:24;;;;;;;;;;;-0.70;61.80;;;;;;5026512;28;19917;-79
2022/03/13 02:23:59;;;;;;;;;;;-0.70;61.30;;;;;;5026063;28;19921;-79
2022/03/13 02:26:25;;;;;;;;;;;-0.80;61.60;;;;;;5032655;28;20063;-78
2022/03/13 02:28:52;;;;;;;;;;;-0.90;61.50;;;;;;5033361;28;19956;-77
2022/03/13 02:31:23;;;;;;;;;;;-0.90;61.80;;;;;;5035552;28;19917;-78
2022/03/13 02:33:51;;;;;;;;;;;-1.00;61.70;;;;;;5033930;28;19921;-77
2022/03/13 02:36:38;;;;;;;;;;;-1.00;62.20;;;;;;5031570;28;19917;-75
2022/03/13 02:39:05;;;;;;;;;;;-1.10;63.30;;;;;;5033122;28;19917;-79
2022/03/13 02:41:31;;;;;;;;;;;-1.00;65.00;;;;;;5035659;28;20007;-78
2022/03/13 02:43:57;;;;;;;;;;;-1.10;64.70;;;;;;5030117;28;19944;-79
2022/03/13 02:46:42;;;;;;;;;;;-1.20;64.20;;;;;;5027950;28;19983;-79
2022/03/13 02:49:08;;;;;;;;;;;-1.20;63.60;;;;;;5026913;28;19913;-79
2022/03/13 02:51:34;;;;;;;;;;;-1.20;63.70;;;;;;5021885;28;19917;-79
2022/03/13 02:53:59;;;;;;;;;;;-1.30;62.50;;;;;;5032606;28;20081;-79
2022/03/13 02:56:25;;;;;;;;;;;-1.30;62.20;;;;;;5034433;28;20386;-78
2022/03/13 02:58:51;;;;;;;;;;;-1.30;62.60;;;;;;5023463;28;19917;-78
2022/03/13 03:01:18;;;;;;;;;;;-1.40;63.50;;;;;;5025888;28;19962;-77
2022/03/13 03:03:43;;;;;;;;;;;-1.40;64.00;;;;;;5027337;28;19917;-79
2022/03/13 03:06:11;;;;;;;;;;;-1.40;64.50;;;;;;5028438;28;19917;-77
2022/03/13 03:08:37;;;;;;;;;;;-1.40;64.80;;;;;;5024826;28;20495;-78
2022/03/13 03:11:03;;;;;;;;;;;-1.50;64.00;;;;;;5025011;28;19928;-80
2022/03/13 03:13:29;;;;;;;;;;;-1.50;63.40;;;;;;5033154;28;19914;-78
2022/03/13 03:15:54;;;;;;;;;;;-1.50;63.30;;;;;;5030540;28;19914;-79
2022/03/13 03:18:21;;;;;;;;;;;-1.50;65.20;;;;;;5023760;28;19913;-79
2022/03/13 03:20:47;;;;;;;;;;;-1.50;65.20;;;;;;5036132;28;19928;-80
2022/03/13 03:23:13;;;;;;;;;;;-1.50;65.00;;;;;;5029966;28;19945;-79
2022/03/13 03:25:39;;;;;;;;;;;-1.50;64.50;;;;;;5024764;28;19922;-78
2022/03/13 03:28:04;;;;;;;;;;;-1.50;64.00;;;;;;5031205;28;19914;-78
2022/03/13 03:30:30;;;;;;;;;;;-1.60;64.00;;;;;;5025418;28;20268;-79
2022/03/13 03:32:56;;;;;;;;;;;-1.60;63.90;;;;;;5012594;28;20367;-76
2022/03/13 03:35:23;;;;;;;;;;;-1.60;63.30;;;;;;5017705;28;20302;-78
2022/03/13 03:37:50;;;;;;;;;;;-1.60;63.40;;;;;;5022911;28;19913;-78
2022/03/13 03:40:16;;;;;;;;;;;-1.50;63.20;;;;;;5024632;28;19927;-80
2022/03/13 03:42:42;;;;;;;;;;;-1.60;61.80;;;;;;5029886;28;19913;-80
2022/03/13 03:45:08;;;;;;;;;;;-1.50;60.60;;;;;;5030513;28;19914;-79
2022/03/13 03:47:33;;;;;;;;;;;-1.40;61.00;;;;;;5028881;28;20349;-78
2022/03/13 03:49:59;;;;;;;;;;;-1.30;61.10;;;;;;5022006;28;19941;-78
2022/03/13 03:52:26;;;;;;;;;;;-1.30;62.10;;;;;;5032799;28;19936;-79
2022/03/13 03:54:54;;;;;;;;;;;-1.30;63.30;;;;;;5033411;28;19921;-78
2022/03/13 03:57:20;;;;;;;;;;;-1.30;62.20;;;;;;5028761;28;19922;-79
2022/03/13 03:59:45;;;;;;;;;;;-1.30;62.50;;;;;;5027270;28;20397;-79
2022/03/13 04:02:12;;;;;;;;;;;-1.30;63.30;;;;;;5029927;28;19979;-79
2022/03/13 04:04:39;;;;;;;;;;;-1.30;60.60;;;;;;5034313;28;19920;-80
2022/03/13 04:07:04;;;;;;;;;;;-1.20;61.60;;;;;;5015985;28;20371;-81
2022/03/13 04:09:30;;;;;;;;;;;-1.20;60.00;;;;;;5019519;28;19928;-81
2022/03/13 04:11:56;;;;;;;;;;;-1.20;60.60;;;;;;5027809;28;19920;-81
2022/03/13 04:14:22;;;;;;;;;;;-1.10;60.00;;;;;;5028946;28;19913;-81
2022/03/13 04:16:48;;;;;;;;;;;-1.10;59.60;;;;;;5024656;28;19917;-80
2022/03/13 04:19:14;;;;;;;;;;;-1.00;60.20;;;;;;5027623;28;20046;-80
2022/03/13 04:21:40;;;;;;;;;;;-1.00;60.80;;;;;;5031268;28;19957;-76
2022/03/13 04:24:07;;;;;;;;;;;-1.00;59.60;;;;;;5027485;28;19920;-80
2022/03/13 04:26:32;;;;;;;;;;;-1.00;59.50;;;;;;5030113;28;19925;-81
2022/03/13 04:28:58;;;;;;;;;;;-1.00;59.00;;;;;;5031159;28;19913;-81
2022/03/13 04:31:24;;;;;;;;;;;-1.00;59.60;;;;;;5028803;28;19956;-77
2022/03/13 04:33:52;;;;;;;;;;;-1.00;59.90;;;;;;5022446;28;19917;-79
2022/03/13 04:36:21;;;;;;;;;;;-1.00;60.20;;;;;;5006939;28;20402;-79
2022/03/13 04:38:47;;;;;;;;;;;-1.00;59.70;;;;;;5030004;28;20291;-81
2022/03/13 04:41:13;;;;;;;;;;;-1.00;59.80;;;;;;5031976;28;19924;-79
2022/03/13 04:43:40;;;;;;;;;;;-1.00;60.30;;;;;;5010760;28;19917;-78
2022/03/13 04:46:06;;;;;;;;;;;-1.00;60.50;;;;;;5016776;28;19914;-77
2022/03/13 04:48:32;;;;;;;;;;;-1.10;60.30;;;;;;5021523;28;20033;-77
2022/03/13 04:50:59;;;;;;;;;;;-1.10;60.70;;;;;;5028213;28;19918;-78
2022/03/13 04:53:24;;;;;;;;;;;-1.10;61.30;;;;;;5030452;28;19953;-79
2022/03/13 04:55:50;;;;;;;;;;;-1.20;60.60;;;;;;5027155;28;19952;-79
2022/03/13 04:58:16;;;;;;;;;;;-1.20;60.80;;;;;;5033647;28;19920;-79
2022/03/13 05:00:42;;;;;;;;;;;-1.20;61.30;;;;;;5026949;28;20342;-77
2022/03/13 05:03:10;;;;;;;;;;;-1.20;60.80;;;;;;5012511;28;19964;-77
2022/03/13 05:05:36;;;;;;;;;;;-1.30;60.90;;;;;;5027326;28;19913;-78
2022/03/13 05:08:03;;;;;;;;;;;-1.20;61.60;;;;;;5022695;28;19926;-77
2022/03/13 05:10:35;;;;;;;;;;;-1.20;61.20;;;;;;5029006;28;19921;-77
2022/03/13 05:13:01;;;;;;;;;;;-1.30;60.30;;;;;;5020621;28;19970;-77
2022/03/13 05:15:26;;;;;;;;;;;-1.30;61.00;;;;;;5017907;28;19967;-78
2022/03/13 05:17:52;;;;;;;;;;;-1.20;61.30;;;;;;5018628;28;19917;-77
2022/03/13 05:20:18;;;;;;;;;;;-1.20;59.80;;;;;;5034772;28;19921;-79
2022/03/13 05:22:44;;;;;;;;;;;-1.20;60.10;;;;;;5027513;28;20051;-80
2022/03/13 05:25:14;;;;;;;;;;;-1.20;60.60;;;;;;5022684;28;19924;-79
2022/03/13 05:27:40;;;;;;;;;;;-1.10;60.40;;;;;;5031577;28;20411;-76
2022/03/13 05:30:07;;;;;;;;;;;-1.10;59.30;;;;;;5038654;28;19920;-79
2022/03/13 05:32:35;;;;;;;;;;;-1.10;59.10;;;;;;5031232;28;19941;-79
2022/03/13 05:35:02;;;;;;;;;;;-1.00;58.60;;;;;;5037611;28;19917;-79
2022/03/13 05:37:28;;;;;;;;;;;-1.00;58.70;;;;;;5027843;28;19917;-78
2022/03/13 05:39:53;;;;;;;;;;;-0.90;57.80;;;;;;5032400;28;19921;-78
2022/03/13 05:42:24;;;;;;;;;;;-0.90;57.50;;;;;;5014470;28;19917;-79
2022/03/13 05:44:53;;;;;;;;;;;-0.90;57.90;;;;;;5019376;28;20085;-77
2022/03/13 05:47:19;;;;;;;;;;;-0.80;57.70;;;;;;5028335;28;19913;-78
2022/03/13 05:49:47;;;;;;;;;;;-0.80;57.40;;;;;;5035446;28;19936;-78
2022/03/13 05:52:15;;;;;;;;;;;-0.80;58.40;;;;;;5028721;28;20437;-78
2022/03/13 05:54:44;;;;;;;;;;;-0.80;58.50;;;;;;5025010;28;19914;-79
2022/03/13 05:57:10;;;;;;;;;;;-0.80;58.90;;;;;;5039747;28;19913;-78
2022/03/13 05:59:36;;;;;;;;;;;-0.80;60.50;;;;;;5036904;28;19917;-78
2022/03/13 06:02:04;;;;;;;;;;;-0.90;59.80;;;;;;5031178;28;19925;-78
2022/03/13 06:04:36;;;;;;;;;;;-0.90;60.90;;;;;;5023510;28;19957;-78
2022/03/13 06:07:03;;;;;;;;;;;-0.90;59.70;;;;;;5026017;28;20288;-79
2022/03/13 06:09:29;;;;;;;;;;;-0.90;60.90;;;;;;5032884;28;19921;-79
2022/03/13 06:11:58;;;;;;;;;;;-0.90;60.20;;;;;;5027073;28;19917;-80
2022/03/13 06:14:23;;;;;;;;;;;-0.90;61.40;;;;;;5038434;28;19917;-78
2022/03/13 06:16:49;;;;;;;;;;;-0.90;62.40;;;;;;5034725;28;19917;-78
2022/03/13 06:19:14;;;;;;;;;;;-0.80;61.90;;;;;;5028700;28;19996;-79
2022/03/13 06:21:40;;;;;;;;;;;-0.80;62.70;;;;;;5026704;28;19925;-77
2022/03/13 06:24:06;;;;;;;;;;;-0.80;59.80;;;;;;5004028;28;19952;-76
2022/03/13 06:26:31;;;;;;;;;;;-0.70;60.50;;;;;;5028136;28;19921;-76
2022/03/13 06:28:58;;;;;;;;;;;-0.60;59.70;;;;;;5032675;28;19940;-77
2022/03/13 06:31:24;;;;;;;;;;;-0.60;59.50;;;;;;5029625;28;19921;-76
2022/03/13 06:33:50;;;;;;;;;;;-0.40;58.50;;;;;;5014925;28;19925;-78
2022/03/13 06:36:15;;;;;;;;;;;-0.20;58.10;;;;;;5025929;28;20391;-77
2022/03/13 06:38:41;;;;;;;;;;;0.10;57.80;;;;;;5033417;28;19924;-77
2022/03/13 06:41:07;;;;;;;;;;;0.40;56.60;;;;;;5032054;28;20371;-77
2022/03/13 06:43:34;;;;;;;;;;;0.60;55.80;;;;;;5025577;28;19946;-77
2022/03/13 06:46:01;;;;;;;;;;;0.90;55.30;;;;;;5031574;28;20327;-77
2022/03/13 06:48:26;;;;;;;;;;;1.20;55.80;;;;;;5023262;28;19924;-78
2022/03/13 06:50:53;;;;;;;;;;;1.40;53.40;;;;;;5024334;28;19996;-78
2022/03/13 06:53:19;;;;;;;;;;;1.60;52.60;;;;;;5029117;28;19952;-77
2022/03/13 06:55:45;;;;;;;;;;;1.80;52.60;;;;;;5028061;28;19918;-79
2022/03/13 06:58:10;;;;;;;;;;;2.00;53.00;;;;;;5034093;28;20394;-78
2022/03/13 07:00:36;;;;;;;;;;;2.20;52.20;;;;;;5037425;28;19925;-78
2022/03/13 07:03:04;;;;;;;;;;;2.30;52.20;;;;;;5035925;28;20272;-77
2022/03/13 07:05:31;;;;;;;;;;;2.60;50.70;;;;;;5034339;28;19947;-78
2022/03/13 07:07:57;;;;;;;;;;;2.70;51.00;;;;;;5032432;28;19940;-77
2022/03/13 07:10:23;;;;;;;;;;;2.90;50.80;;;;;;5029272;28;19971;-78
2022/03/13 07:12:48;;;;;;;;;;;3.00;49.70;;;;;;5036235;28;19908;-80
2022/03/13 07:15:14;;;;;;;;;;;3.00;49.60;;;;;;5033865;28;19913;-79
2022/03/13 07:17:41;;;;;;;;;;;3.10;49.70;;;;;;5041090;23;19933;-79
2022/03/13 07:20:07;;;;;;;;;;;3.20;49.10;;;;;;5008620;28;19921;-79
2022/03/13 07:22:33;;;;;;;;;;;3.50;49.40;;;;;;5009828;28;19914;-79
2022/03/13 07:24:58;;;;;;;;;;;3.70;49.00;;;;;;5019996;28;19914;-79
2022/03/13 07:27:24;;;;;;;;;;;3.80;49.00;;;;;;4999795;28;19914;-79
2022/03/13 07:29:51;;;;;;;;;;;3.90;48.20;;;;;;5003779;28;20126;-78
2022/03/13 07:32:17;;;;;;;;;;;4.00;48.00;;;;;;4981350;28;19924;-79
2022/03/13 07:34:42;;;;;;;;;;;4.00;47.00;;;;;;5010460;28;19913;-78
2022/03/13 07:37:10;;;;;;;;;;;4.00;46.40;;;;;;5004310;28;19921;-78
2022/03/13 07:39:42;;;;;;;;;;;4.00;48.60;;;;;;5006965;28;19917;-78
2022/03/13 07:42:10;;;;;;;;;;;4.20;48.60;;;;;;5008530;28;20004;-78
2022/03/13 07:44:35;;;;;;;;;;;4.20;46.80;;;;;;5012159;28;19920;-78
2022/03/13 07:47:01;;;;;;;;;;;4.30;46.80;;;;;;4979424;28;19918;-79
2022/03/13 07:49:27;;;;;;;;;;;4.30;46.50;;;;;;4996274;28;19923;-78
2022/03/13 07:51:52;;;;;;;;;;;4.30;47.00;;;;;;5000053;28;19913;-79
2022/03/13 07:54:19;;;;;;;;;;;4.40;47.60;;;;;;4986921;28;19917;-78
2022/03/13 07:56:45;;;;;;;;;;;4.50;46.70;;;;;;4978063;28;20412;-79
2022/03/13 07:59:10;;;;;;;;;;;4.70;46.00;;;;;;4995260;28;19922;-78
2022/03/13 08:01:36;;;;;;;;;;;4.80;45.50;;;;;;4988923;28;19965;-78
2022/03/13 08:04:05;;;;;;;;;;;4.90;46.00;;;;;;4979201;28;19924;-78
2022/03/13 08:06:34;;;;;;;;;;;4.90;45.90;;;;;;4989019;28;19921;-78
2022/03/13 08:09:00;;;;;;;;;;;4.90;45.20;;;;;;4992272;28;19929;-78
2022/03/13 08:11:26;;;;;;;;;;;4.80;45.40;;;;;;5008158;28;20004;-78
2022/03/13 08:13:52;;;;;;;;;;;4.80;44.90;;;;;;4995592;28;19999;-78
2022/03/13 08:16:18;;;;;;;;;;;4.90;46.20;;;;;;5011108;28;19925;-78
2022/03/13 08:18:44;;;;;;;;;;;4.80;45.50;;;;;;4976456;28;19921;-78
2022/03/13 08:21:10;;;;;;;;;;;4.70;45.50;;;;;;5012654;28;19926;-78
2022/03/13 08:23:35;;;;;;;;;;;4.60;44.80;;;;;;4996533;28;20008;-78
2022/03/13 08:26:01;;;;;;;;;;;4.70;46.10;;;;;;5015634;28;19948;-78
2022/03/13 08:28:26;;;;;;;;;;;4.70;46.10;;;;;;5000941;28;19971;-80
2022/03/13 08:30:52;;;;;;;;;;;4.80;45.90;;;;;;4967604;28;20424;-78
2022/03/13 08:33:18;;;;;;;;;;;4.90;45.10;;;;;;5006053;28;19925;-78
2022/03/13 08:35:44;;;;;;;;;;;4.80;46.30;;;;;;4993010;28;19922;-79
2022/03/13 08:38:10;;;;;;;;;;;4.70;45.60;;;;;;5000953;28;19920;-78
2022/03/13 08:40:36;;;;;;;;;;;4.70;46.80;;;;;;4977063;28;19925;-78
2022/03/13 08:43:01;;;;;;;;;;;4.70;46.60;;;;;;4978658;28;19918;-77
2022/03/13 08:45:27;;;;;;;;;;;4.70;47.10;;;;;;4999373;28;19914;-79
2022/03/13 08:47:53;;;;;;;;;;;4.70;46.10;;;;;;4973692;28;20032;-78
2022/03/13 08:50:20;;;;;;;;;;;4.70;46.40;;;;;;4985188;28;19925;-78
2022/03/13 08:52:46;;;;;;;;;;;4.80;45.80;;;;;;4997213;28;19922;-78
2022/03/13 08:55:15;;;;;;;;;;;4.80;46.50;;;;;;4994859;28;19925;-79
2022/03/13 08:57:41;;;;;;;;;;;4.90;45.90;;;;;;5019076;28;20426;-78
2022/03/13 09:00:10;;;;;;;;;;;4.90;46.00;;;;;;5000508;28;19980;-78
2022/03/13 09:02:39;;;;;;;;;;;4.90;45.40;;;;;;4987080;28;19924;-78
2022/03/13 09:05:05;;;;;;;;;;;5.00;46.10;;;;;;4991540;28;19928;-78
2022/03/13 09:07:31;;;;;;;;;;;5.20;47.00;;;;;;4999294;28;19918;-79
2022/03/13 09:09:57;;;;;;;;;;;5.20;45.70;;;;;;5000107;28;19921;-78
2022/03/13 09:12:22;;;;;;;;;;;5.40;46.00;;;;;;4982281;28;20009;-79
2022/03/13 09:14:48;;;;;;;;;;;5.50;44.80;;;;;;4996942;28;19921;-78
2022/03/13 09:17:15;;;;;;;;;;;5.60;45.70;;;;;;4983253;28;20335;-78
2022/03/13 09:19:41;;;;;;;;;;;5.60;46.30;;;;;;4998182;28;19924;-78
2022/03/13 09:22:07;;;;;;;;;;;5.80;44.60;;;;;;4984176;28;19921;-77
2022/03/13 09:24:33;;;;;;;;;;;5.80;44.10;;;;;;4988013;28;19917;-78
2022/03/13 09:26:59;;;;;;;;;;;5.80;44.80;;;;;;4996451;28;20004;-79
2022/03/13 09:29:24;;;;;;;;;;;5.80;45.00;;;;;;4996070;28;19917;-79
2022/03/13 09:31:50;;;;;;;;;;;6.00;46.00;;;;;;5000692;28;20403;-78
2022/03/13 09:34:16;;;;;;;;;;;6.00;44.00;;;;;;4956989;28;19918;-77
2022/03/13 09:36:43;;;;;;;;;;;6.00;44.60;;;;;;4997499;28;20411;-78
2022/03/13 09:39:09;;;;;;;;;;;6.00;44.20;;;;;;4995605;28;19929;-78
2022/03/13 09:41:37;;;;;;;;;;;6.00;44.30;;;;;;4981829;28;20000;-78
2022/03/13 09:44:04;;;;;;;;;;;6.00;44.60;;;;;;4997942;28;20367;-78
2022/03/13 09:46:30;;;;;;;;;;;6.10;44.70;;;;;;5000759;28;19913;-78
2022/03/13 09:48:55;;;;;;;;;;;6.20;45.00;;;;;;4976323;28;20357;-78
2022/03/13 09:51:21;;;;;;;;;;;6.40;44.50;;;;;;4984811;28;19918;-78
2022/03/13 09:53:47;;;;;;;;;;;6.40;43.50;;;;;;4993001;28;19940;-78
2022/03/13 09:56:13;;;;;;;;;;;6.60;44.30;;;;;;5000899;28;20006;-78
2022/03/13 09:58:40;;;;;;;;;;;6.90;44.20;;;;;;4985208;28;19933;-78
2022/03/13 10:01:07;;;;;;;;;;;7.00;42.10;;;;;;4994358;28;19944;-78
2022/03/13 10:03:33;;;;;;;;;;;7.20;42.20;;;;;;4991275;28;19928;-78
2022/03/13 10:05:59;;;;;;;;;;;7.20;42.60;;;;;;4980139;28;19918;-78
2022/03/13 10:08:29;;;;;;;;;;;7.30;41.90;;;;;;4982910;28;19984;-79
2022/03/13 10:10:55;;;;;;;;;;;7.30;42.90;;;;;;4980724;28;19921;-78
2022/03/13 10:13:32;;;;;;;;;;;7.30;43.00;;;;;;5022379;28;19924;-77
2022/03/13 10:15:58;;;;;;;;;;;7.40;43.00;;;;;;4989743;28;19917;-77
2022/03/13 10:18:25;;;;;;;;;;;7.50;43.00;;;;;;4987501;28;19933;-77
2022/03/13 10:20:52;;;;;;;;;;;7.50;42.50;;;;;;4988182;28;20418;-80
2022/03/13 10:23:19;;;;;;;;;;;7.60;41.60;;;;;;4998176;28;19999;-79
2022/03/13 10:25:47;;;;;;;;;;;7.70;41.90;;;;;;4987361;28;19913;-79
2022/03/13 10:28:18;;;;;;;;;;;7.70;40.70;;;;;;5019922;28;19973;-79
2022/03/13 10:30:45;;;;;;;;;;;7.80;40.90;;;;;;5001843;28;19917;-79
2022/03/13 10:33:11;;;;;;;;;;;7.80;41.10;;;;;;4978930;28;19926;-79
2022/03/13 10:35:37;;;;;;;;;;;7.90;41.60;;;;;;4986303;28;19918;-79
2022/03/13 10:38:13;;;;;;;;;;;8.00;40.60;;;;;;4999901;28;19941;-80
2022/03/13 10:40:45;;;;;;;;;;;8.10;40.00;;;;;;4979982;28;19918;-79
2022/03/13 10:43:18;;;;;;;;;;;8.20;39.90;;;;;;4991447;28;19922;-79
2022/03/13 10:45:51;;;;;;;;;;;8.10;42.10;;;;;;4989131;28;19924;-79
2022/03/13 10:48:22;;;;;;;;;;;8.30;43.00;;;;;;4975150;28;19945;-79
2022/03/13 10:50:48;;;;;;;;;;;8.40;41.00;;;;;;4983829;28;19916;-79
2022/03/13 10:53:14;;;;;;;;;;;8.40;40.00;;;;;;4975535;28;20016;-80
2022/03/13 10:55:44;;;;;;;;;;;8.50;40.90;;;;;;4996962;28;19983;-79
2022/03/13 10:58:10;;;;;;;;;;;8.50;40.70;;;;;;5002108;28;19920;-81
2022/03/13 11:00:36;;;;;;;;;;;8.60;40.20;;;;;;5001896;28;19921;-79
2022/03/13 11:03:10;;;;;;;;;;;8.60;39.90;;;;;;4996761;28;19924;-80
2022/03/13 11:05:36;;;;;;;;;;;8.60;39.80;;;;;;4976225;28;19918;-80
2022/03/13 11:08:03;;;;;;;;;;;8.50;40.00;;;;;;4994514;28;20702;-80
2022/03/13 11:10:30;;;;;;;;;;;8.60;39.00;;;;;;4972257;28;20132;-79
2022/03/13 11:12:57;;;;;;;;;;;8.60;39.80;;;;;;4992710;28;20446;-78
2022/03/13 11:15:27;;;;;;;;;;;8.60;40.40;;;;;;4995651;28;19914;-79
2022/03/13 11:17:54;;;;;;;;;;;8.70;39.30;;;;;;4975777;28;19917;-79
2022/03/13 11:20:20;;;;;;;;;;;8.80;39.10;;;;;;4994084;28;20315;-79
2022/03/13 11:22:46;;;;;;;;;;;9.00;39.30;;;;;;4974838;28;20024;-80
2022/03/13 11:25:12;;;;;;;;;;;9.00;38.70;;;;;;4988104;28;19939;-78
2022/03/13 11:27:39;;;;;;;;;;;9.10;38.50;;;;;;5004889;28;20009;-79
2022/03/13 11:30:06;;;;;;;;;;;9.20;39.00;;;;;;4985899;28;19917;-78
2022/03/13 11:32:40;;;;;;;;;;;9.30;38.10;;;;;;4965152;28;20226;-80
2022/03/13 11:35:15;;;;;;;;;;;9.30;40.30;;;;;;4992025;28;19917;-79
2022/03/13 11:37:43;;;;;;;;;;;9.40;39.10;;;;;;4977985;28;20358;-79
2022/03/13 11:40:10;;;;;;;;;;;9.50;39.60;;;;;;4997184;28;19964;-79
2022/03/13 11:42:48;;;;;;;;;;;9.60;40.00;;;;;;4983646;28;19918;-80
2022/03/13 11:47:55;;;;;;;;;;;9.80;38.90;;;;;;5005856;28;19917;-79
2022/03/13 11:50:25;;;;;;;;;;;9.90;39.80;;;;;;5000206;28;19995;-79
2022/03/13 11:53:13;;;;;;;;;;;10.00;37.90;;;;;;5003632;28;20371;-81
2022/03/13 11:56:02;;;;;;;;;;;10.00;38.50;;;;;;4986986;28;19921;-80
2022/03/13 11:58:46;;;;;;;;;;;10.20;37.50;;;;;;5011781;28;19936;-79
2022/03/13 12:01:30;;;;;;;;;;;10.40;38.50;;;;;;5002894;28;19918;-82
2022/03/13 12:04:14;;;;;;;;;;;10.50;37.00;;;;;;4997684;28;19950;-80
2022/03/13 12:06:41;;;;;;;;;;;10.60;38.70;;;;;;5007838;28;19914;-80
2022/03/13 12:09:08;;;;;;;;;;;10.70;36.40;;;;;;4992960;28;20008;-78
2022/03/13 12:11:44;;;;;;;;;;;10.80;36.60;;;;;;4984376;28;19981;-79
2022/03/13 12:14:12;;;;;;;;;;;10.80;36.90;;;;;;5010666;28;20384;-79
2022/03/13 12:16:38;;;;;;;;;;;10.70;37.00;;;;;;4995011;28;19913;-79
2022/03/13 12:19:07;;;;;;;;;;;10.80;38.10;;;;;;4985634;28;20261;-79
2022/03/13 12:21:33;;;;;;;;;;;10.80;36.40;;;;;;5010688;28;20006;-79
2022/03/13 12:24:15;;;;;;;;;;;10.80;37.80;;;;;;4985886;28;19925;-79
2022/03/13 12:26:41;;;;;;;;;;;10.70;35.60;;;;;;4991875;28;19917;-78
2022/03/13 12:29:08;;;;;;;;;;;10.80;35.80;;;;;;4991437;28;19924;-79
2022/03/13 12:31:41;;;;;;;;;;;10.70;35.40;;;;;;4983044;28;19921;-79
2022/03/13 12:34:06;;;;;;;;;;;10.70;35.90;;;;;;4980779;28;20402;-79
2022/03/13 12:36:39;;;;;;;;;;;10.70;35.80;;;;;;5000996;28;19913;-78
2022/03/13 12:39:11;;;;;;;;;;;10.80;37.90;;;;;;4973222;28;21229;-79
2022/03/13 12:41:39;;;;;;;;;;;10.90;36.70;;;;;;5007253;28;19932;-80
2022/03/13 12:44:05;;;;;;;;;;;10.80;35.40;;;;;;4999978;28;19976;-79
2022/03/13 12:46:32;;;;;;;;;;;10.80;35.60;;;;;;5007338;28;19925;-79
2022/03/13 12:48:58;;;;;;;;;;;10.70;36.60;;;;;;4991857;28;19922;-79
2022/03/13 12:51:34;;;;;;;;;;;10.80;36.60;;;;;;4988015;28;19988;-79
2022/03/13 12:54:04;;;;;;;;;;;11.00;36.80;;;;;;4992141;28;20009;-79
2022/03/13 12:56:30;;;;;;;;;;;11.00;36.00;;;;;;4975916;28;19921;-79
2022/03/13 12:58:57;;;;;;;;;;;11.00;37.20;;;;;;4985201;28;20029;-79
2022/03/13 13:01:22;;;;;;;;;;;11.10;36.40;;;;;;5012432;28;20433;-79
2022/03/13 13:03:52;;;;;;;;;;;11.20;36.40;;;;;;5011108;28;19918;-78
2022/03/13 13:06:29;;;;;;;;;;;11.30;36.90;;;;;;4990523;28;21572;-79
2022/03/13 13:08:55;;;;;;;;;;;11.30;36.70;;;;;;5022790;28;19917;-79
2022/03/13 13:11:31;;;;;;;;;;;11.40;37.30;;;;;;4980055;28;19972;-79
2022/03/13 13:13:57;;;;;;;;;;;11.40;36.50;;;;;;4977658;28;20265;-79
2022/03/13 13:16:23;;;;;;;;;;;11.30;37.10;;;;;;4992218;28;19924;-79
2022/03/13 13:18:49;;;;;;;;;;;11.30;37.80;;;;;;5005109;28;19922;-79
2022/03/13 13:21:14;;;;;;;;;;;11.40;38.40;;;;;;4992582;28;20005;-79
2022/03/13 13:23:40;;;;;;;;;;;11.40;37.50;;;;;;4985273;28;19921;-79
2022/03/13 13:26:05;;;;;;;;;;;11.50;38.30;;;;;;4998720;28;19917;-79
2022/03/13 13:28:31;;;;;;;;;;;11.60;36.60;;;;;;4996649;28;19918;-79
2022/03/13 13:30:57;;;;;;;;;;;11.60;38.00;;;;;;4978911;28;19918;-78
2022/03/13 13:33:28;;;;;;;;;;;11.70;36.80;;;;;;4989994;28;20055;-78
2022/03/13 13:35:54;;;;;;;;;;;11.60;36.40;;;;;;5015509;28;19913;-81
2022/03/13 13:38:22;;;;;;;;;;;11.70;36.50;;;;;;4993054;28;19917;-79
2022/03/13 13:40:57;;;;;;;;;;;11.80;36.20;;;;;;4979576;28;20194;-78
2022/03/13 13:43:24;;;;;;;;;;;11.80;36.60;;;;;;4997941;28;20450;-79
2022/03/13 13:45:59;;;;;;;;;;;11.80;36.60;;;;;;5005294;28;19913;-79
2022/03/13 13:48:31;;;;;;;;;;;11.90;35.80;;;;;;5013610;28;19913;-80
2022/03/13 13:51:13;;;;;;;;;;;11.90;36.70;;;;;;5001271;28;19928;-79
2022/03/13 13:53:54;;;;;;;;;;;12.00;36.20;;;;;;5015084;28;19937;-79
2022/03/13 13:56:24;;;;;;;;;;;11.90;35.70;;;;;;5002006;28;20432;-79
2022/03/13 13:58:50;;;;;;;;;;;11.90;35.50;;;;;;4994611;28;19917;-78
2022/03/13 14:01:31;;;;;;;;;;;11.90;36.20;;;;;;4990824;28;20372;-79
2022/03/13 14:03:57;;;;;;;;;;;12.00;36.30;;;;;;4973171;28;20009;-78
2022/03/13 14:06:24;;;;;;;;;;;12.00;36.40;;;;;;4979191;28;19994;-78
2022/03/13 14:08:50;;;;;;;;;;;12.00;36.10;;;;;;4958428;28;19918;-78
2022/03/13 14:11:17;;;;;;;;;;;12.00;35.50;;;;;;4973123;28;19923;-78
2022/03/13 14:13:46;;;;;;;;;;;12.00;34.20;;;;;;4963542;28;19914;-79
2022/03/13 14:16:13;;;;;;;;;;;11.80;34.40;;;;;;4976176;28;20391;-78
2022/03/13 14:18:39;;;;;;;;;;;11.80;36.30;;;;;;4975411;28;19981;-79
2022/03/13 14:21:05;;;;;;;;;;;11.70;35.40;;;;;;4964219;28;20020;-78
2022/03/13 14:23:31;;;;;;;;;;;11.70;35.00;;;;;;4964869;28;19926;-79
2022/03/13 14:25:56;;;;;;;;;;;11.80;35.90;;;;;;5000608;28;19937;-79